Weather reports worldwide

Advertisment
Gogerddan, United Kingdom (99150): temperature & dewpoint: 12.07.2018 19:00:00 - 18.07.2018 19:00:00 (BST)Gogerddan, United Kingdom (99150): temperature -20cm & temperature -100cm: 12.07.2018 19:00:00 - 18.07.2018 19:00:00 (BST)Gogerddan, United Kingdom (99150): precipitation: 12.07.2018 19:00:00 - 18.07.2018 19:00:00 (BST)
Date & Time tt [°C] td [°C] tt -20cm [°C] tt -100cm [°C] rr [mm]
18.07.2018 19:00:00 - - - - -
18.07.2018 18:00:00 19,8 14,2 - - 0,0
18.07.2018 17:00:00 20,9 13,4 - - 0,0
18.07.2018 16:00:00 22,2 11,1 - - 0,0
18.07.2018 15:00:00 21,3 9,3 - - 0,0
18.07.2018 14:00:00 20,1 9,5 - - 0,0
18.07.2018 13:00:00 19,8 9,2 - - 0,0
18.07.2018 12:00:00 21,4 12,4 - - 0,0
18.07.2018 11:00:00 19,2 10,9 - - 0,0
18.07.2018 10:00:00 18,5 12,0 17,7 15,7 0,0
18.07.2018 09:00:00 18,5 14,2 - - 0,0
18.07.2018 08:00:00 17,0 13,6 - - 0,0
18.07.2018 07:00:00 16,1 13,0 - - 0,0
18.07.2018 06:00:00 15,3 12,5 - - 0,0
18.07.2018 05:00:00 15,2 12,7 - - 0,0
18.07.2018 04:00:00 15,5 12,9 - - 0,0
18.07.2018 03:00:00 15,5 12,9 - - 0,0
18.07.2018 02:00:00 15,4 13,0 - - 0,0
18.07.2018 01:00:00 15,1 12,1 - - 0,0
18.07.2018 00:00:00 15,4 11,6 - - 0,0
17.07.2018 23:00:00 16,1 11,5 - - 0,0
17.07.2018 22:00:00 16,3 11,3 - - 0,0
17.07.2018 21:00:00 16,5 11,2 - - 0,0
17.07.2018 20:00:00 16,8 10,5 - - 0,0
17.07.2018 19:00:00 17,4 9,7 - - 0,0
17.07.2018 18:00:00 17,5 9,1 - - 0,0
17.07.2018 17:00:00 19,1 6,9 - - 0,0
17.07.2018 16:00:00 19,5 7,5 - - 0,0
17.07.2018 15:00:00 19,5 6,5 - - 0,0
17.07.2018 14:00:00 19,5 12,2 - - 0,0
17.07.2018 13:00:00 18,6 11,2 - - 0,0
17.07.2018 12:00:00 18,7 11,8 - - 0,0
17.07.2018 11:00:00 16,6 10,8 - - 0,0
17.07.2018 10:00:00 15,5 12,0 17,5 15,9 0,0
17.07.2018 09:00:00 15,6 13,8 - - 0,0
17.07.2018 08:00:00 14,3 13,1 - - 0,0
17.07.2018 07:00:00 13,4 12,7 - - 0,0
17.07.2018 06:00:00 12,8 12,0 - - 0,0
17.07.2018 05:00:00 13,3 12,3 - - 0,0
17.07.2018 04:00:00 14,2 13,4 - - 0,0
17.07.2018 03:00:00 14,1 13,2 - - 0,0
17.07.2018 02:00:00 14,3 13,3 - - 0,0
17.07.2018 01:00:00 13,9 13,1 - - 0,0
17.07.2018 00:00:00 13,7 12,9 - - 0,0
16.07.2018 23:00:00 13,6 12,5 - - 0,0
16.07.2018 22:00:00 13,8 12,6 - - 0,0
16.07.2018 21:00:00 14,3 12,0 - - 0,0
16.07.2018 20:00:00 15,0 12,7 - - 0,0
16.07.2018 19:00:00 15,1 13,1 - - 0,0
16.07.2018 18:00:00 16,1 14,6 - - 0,0
16.07.2018 17:00:00 15,3 14,5 - - 0,4
16.07.2018 16:00:00 15,7 14,7 - - 0,8
16.07.2018 15:00:00 18,3 16,0 - - 0,0
16.07.2018 14:00:00 17,8 16,3 - - 1,6
16.07.2018 13:00:00 19,1 16,5 - - 0,0
16.07.2018 12:00:00 18,4 16,5 - - 0,4
16.07.2018 11:00:00 17,7 15,5 - - 0,0
16.07.2018 10:00:00 18,6 16,2 17,7 15,7 0,0
16.07.2018 09:00:00 18,3 15,5 - - 0,0
16.07.2018 08:00:00 18,3 15,4 - - 0,0
16.07.2018 07:00:00 17,5 15,3 - - 0,0
16.07.2018 06:00:00 17,4 15,4 - - 0,0
16.07.2018 05:00:00 17,7 15,0 - - 0,0
16.07.2018 04:00:00 17,7 15,0 - - 0,0
16.07.2018 03:00:00 17,6 14,8 - - 0,0
16.07.2018 02:00:00 17,1 14,6 - - 0,0
16.07.2018 01:00:00 17,0 14,7 - - 0,0
16.07.2018 00:00:00 17,0 14,9 - - 0,0
15.07.2018 23:00:00 17,5 15,1 - - 0,0
15.07.2018 22:00:00 17,9 15,0 - - 0,0
15.07.2018 21:00:00 18,3 15,0 - - 0,0
15.07.2018 20:00:00 19,1 15,1 - - 0,0
15.07.2018 19:00:00 20,3 15,6 - - 0,0
15.07.2018 18:00:00 20,8 15,5 - - 0,0
15.07.2018 17:00:00 21,0 15,6 - - 0,0
15.07.2018 16:00:00 21,2 14,7 - - 0,0
15.07.2018 15:00:00 21,2 14,8 - - 0,0
15.07.2018 14:00:00 21,7 14,2 - - 0,0
15.07.2018 13:00:00 22,1 13,1 - - 0,0
15.07.2018 12:00:00 23,5 13,3 - - 0,0
15.07.2018 11:00:00 21,8 12,9 - - 0,0
15.07.2018 10:00:00 20,9 14,0 17,7 15,7 0,0
15.07.2018 09:00:00 19,3 14,6 - - 0,0
15.07.2018 08:00:00 17,7 14,7 - - 0,0
15.07.2018 07:00:00 14,6 13,9 - - 0,0
15.07.2018 06:00:00 13,2 12,3 - - 0,0
15.07.2018 05:00:00 13,6 12,9 - - 0,0
15.07.2018 04:00:00 13,5 12,6 - - 0,0
15.07.2018 03:00:00 13,8 12,7 - - 0,0
15.07.2018 02:00:00 13,5 12,7 - - 0,0
15.07.2018 01:00:00 13,0 11,9 - - 0,0
15.07.2018 00:00:00 13,3 11,5 - - 0,0
14.07.2018 23:00:00 15,0 12,7 - - 0,0
14.07.2018 22:00:00 15,8 12,6 - - 0,0
14.07.2018 21:00:00 18,1 13,2 - - 0,0
14.07.2018 20:00:00 19,9 13,2 - - 0,0
14.07.2018 19:00:00 19,9 12,8 - - 0,0
14.07.2018 18:00:00 20,7 11,8 - - 0,0
14.07.2018 17:00:00 20,1 11,6 - - 0,0
14.07.2018 16:00:00 21,4 12,6 - - 0,0
14.07.2018 15:00:00 20,3 12,5 - - 0,0
14.07.2018 14:00:00 20,0 14,6 - - 0,0
14.07.2018 13:00:00 22,4 13,9 - - 0,0
14.07.2018 12:00:00 22,0 11,4 - - 0,0
14.07.2018 11:00:00 22,0 11,5 - - 0,0
14.07.2018 10:00:00 20,5 11,2 17,7 15,7 0,0
14.07.2018 09:00:00 18,7 12,6 - - 0,0
14.07.2018 08:00:00 15,2 13,1 - - 0,0
14.07.2018 07:00:00 11,9 11,3 - - 0,0
14.07.2018 06:00:00 10,3 9,6 - - 0,0
14.07.2018 05:00:00 10,2 9,5 - - 0,0
14.07.2018 04:00:00 10,8 10,1 - - 0,0
14.07.2018 03:00:00 11,2 10,1 - - 0,0
14.07.2018 02:00:00 11,5 9,9 - - 0,0
14.07.2018 01:00:00 12,6 10,8 - - 0,0
14.07.2018 00:00:00 13,6 11,3 - - 0,0
13.07.2018 23:00:00 15,0 12,0 - - 0,0
13.07.2018 22:00:00 16,3 12,1 - - 0,0
13.07.2018 21:00:00 18,5 12,4 - - 0,0
13.07.2018 20:00:00 19,7 12,7 - - 0,0
13.07.2018 19:00:00 20,9 12,1 - - 0,0
13.07.2018 18:00:00 21,5 12,6 - - 0,0
13.07.2018 17:00:00 21,7 13,4 - - 0,0
13.07.2018 16:00:00 22,0 13,7 - - 0,0
13.07.2018 15:00:00 21,7 14,9 - - 0,0
13.07.2018 14:00:00 21,5 15,5 - - 0,0
13.07.2018 13:00:00 21,9 15,5 - - 0,0
13.07.2018 12:00:00 21,4 16,4 - - 0,0
13.07.2018 11:00:00 21,1 15,6 - - 0,0
13.07.2018 10:00:00 19,7 15,7 17,7 15,7 0,0
13.07.2018 09:00:00 18,7 16,0 - - 0,0
13.07.2018 08:00:00 16,5 15,3 - - 0,0
13.07.2018 07:00:00 14,8 14,4 - - 0,0
13.07.2018 06:00:00 14,1 13,3 - - 0,0
13.07.2018 05:00:00 14,5 13,5 - - 0,0
13.07.2018 04:00:00 15,4 14,7 - - 0,0
13.07.2018 03:00:00 14,9 14,1 - - 0,0
13.07.2018 02:00:00 15,2 14,3 - - 0,0
13.07.2018 01:00:00 15,0 14,2 - - 0,0
13.07.2018 00:00:00 14,9 13,4 - - 0,0
12.07.2018 23:00:00 16,7 14,6 - - 0,0
12.07.2018 22:00:00 17,7 14,6 - - 0,0
12.07.2018 21:00:00 18,7 14,0 - - 0,0
12.07.2018 20:00:00 19,1 14,8 - - 0,0
12.07.2018 19:00:00 19,8 14,1 - - 0,0

tt = temperature
td = dewpoint
tt -20cm = temperature -20cm
tt -100cm = temperature -100cm
rr = precipitation

Next stations